Time;durP1;ratioP1;P1;durP2;ratioP2;P2;SDS_P1;SDS_P2;PMS_P1;PMS_P2;Temp;Humidity;BMP_temperature;BMP_pressure;BME280_temperature;BME280_humidity;BME280_pressure;Samples;Min_cycle;Max_cycle;Signal;HPM_P1;HPM_P2
2020/12/28 05:43:34;;;;;;;15.75;6.97;;;;;;;0.17;72.43;100669.68;1635093;86;21562;-39
2020/12/28 05:46:02;;;;;;;14.13;8.18;;;;;;;0.18;72.34;100674.92;1701385;83;21314;-42
2020/12/28 05:48:30;;;;;;;15.90;7.95;;;;;;;0.18;72.31;100684.34;1688244;84;21214;-42
2020/12/28 05:50:58;;;;;;;19.25;8.73;;;;;;;0.21;72.24;100675.45;1672815;84;21298;-48
2020/12/28 05:53:26;;;;;;;17.92;7.45;;;;;;;0.22;72.27;100672.95;1684437;84;21147;-48
2020/12/28 05:55:54;;;;;;;18.95;7.45;;;;;;;0.24;72.45;100666.20;1674909;83;21194;-47
2020/12/28 05:58:22;;;;;;;18.67;7.58;;;;;;;0.23;72.34;100663.16;1677848;83;21144;-42
2020/12/28 06:00:50;;;;;;;15.85;7.87;;;;;;;0.22;72.46;100661.37;1687509;83;21519;-42
2020/12/28 06:03:25;;;;;;;15.83;7.62;;;;;;;0.23;72.50;100663.53;1680488;83;21176;-43
2020/12/28 06:05:56;;;;;;;19.32;7.60;;;;;;;0.23;72.53;100660.58;1738955;81;21615;-48
2020/12/28 06:08:24;;;;;;;26.60;9.08;;;;;;;0.24;72.60;100662.75;1704078;82;21216;-47
2020/12/28 06:10:53;;;;;;;14.75;9.08;;;;;;;0.27;72.53;100659.02;1683375;83;21629;-47
2020/12/28 06:13:23;;;;;;;21.30;10.68;;;;;;;0.29;72.39;100665.52;1687951;82;21472;-47
2020/12/28 06:16:02;;;;;;;14.00;7.85;;;;;;;0.28;72.34;100660.77;1684798;83;21140;-47
2020/12/28 06:18:32;;;;;;;13.30;8.18;;;;;;;0.26;72.44;100652.98;1687028;82;21170;-41
2020/12/28 06:21:14;;;;;;;12.68;7.17;;;;;;;0.26;72.45;100646.96;1713298;81;21157;-43
2020/12/28 06:23:50;;;;;;;17.50;8.50;;;;;;;0.28;72.49;100645.73;1736447;80;21785;-42
2020/12/28 06:26:25;;;;;;;10.45;6.80;;;;;;;0.30;72.56;100636.42;1729697;81;21571;-47
2020/12/28 06:29:08;;;;;;;12.23;7.25;;;;;;;0.28;72.62;100628.60;1728423;81;21582;-47
2020/12/28 06:31:40;;;;;;;17.17;7.33;;;;;;;0.28;72.64;100628.60;1731037;81;21301;-47
2020/12/28 06:34:18;;;;;;;13.40;7.37;;;;;;;0.29;72.52;100642.34;1739264;80;21858;-47
2020/12/28 06:37:01;;;;;;;14.33;7.55;;;;;;;0.30;72.64;100645.42;1702422;82;21154;-46
2020/12/28 06:39:56;;;;;;;14.98;8.60;;;;;;;0.31;72.78;100641.63;1734815;80;21169;-44
2020/12/28 06:43:12;;;;;;;9.80;6.47;;;;;;;0.35;72.66;100634.53;1759932;79;21141;-39
2020/12/28 06:45:56;;;;;;;14.95;8.53;;;;;;;0.37;72.76;100647.06;1743750;80;21130;-45
2020/12/28 06:48:29;;;;;;;13.65;7.85;;;;;;;0.38;72.72;100637.23;1719874;80;21106;-45
2020/12/28 06:51:08;;;;;;;13.53;7.40;;;;;;;0.43;72.62;100644.77;1721467;80;21167;-38
2020/12/28 06:53:42;;;;;;;46.85;18.73;;;;;;;0.48;72.66;100641.13;1743333;80;21172;-44
2020/12/28 06:56:11;;;;;;;43.87;16.32;;;;;;;0.53;72.63;100638.36;1742263;80;21145;-41
2020/12/28 06:58:42;;;;;;;59.57;17.70;;;;;;;0.59;72.64;100639.04;1736026;80;21706;-37
2020/12/28 07:01:13;;;;;;;38.38;14.90;;;;;;;0.59;72.50;100637.34;1741189;80;21891;-40
2020/12/28 07:03:48;;;;;;;23.85;10.18;;;;;;;0.67;72.52;100645.00;1702020;80;21207;-40
2020/12/28 07:06:17;;;;;;;20.52;10.82;;;;;;;0.71;72.44;100628.88;1742818;80;21332;-39
2020/12/28 07:08:48;;;;;;;16.00;7.67;;;;;;;0.76;72.27;100626.52;1740995;80;22260;-45
2020/12/28 07:11:22;;;;;;;17.98;10.10;;;;;;;0.78;72.33;100627.45;1738633;80;21281;-45
2020/12/28 07:13:50;;;;;;;17.57;7.97;;;;;;;0.79;72.23;100639.52;1739801;80;21171;-45
2020/12/28 07:16:18;;;;;;;13.43;8.28;;;;;;;0.77;72.43;100639.45;1746357;80;21216;-45
2020/12/28 07:25:24;;;;;;;11.85;7.58;;;;;;;0.88;72.74;100629.63;1794458;76;24141;-41
2020/12/28 07:28:03;;;;;;;8.85;6.03;;;;;;;0.87;72.86;100627.88;1795889;78;21724;-43
2020/12/28 07:30:41;;;;;;;;;;;;;;;0.91;72.85;100625.88;1736858;81;21151;-45
2020/12/28 07:34:20;;;;;;;11.30;6.80;;;;;;;0.93;72.94;100622.08;1734084;81;20295;-45
2020/12/28 07:37:25;;;;;;;12.15;6.22;;;;;;;0.94;73.09;100630.31;1758988;79;22206;-40
2020/12/28 07:40:12;;;;;;;10.20;5.30;;;;;;;1.03;72.96;100616.11;1757031;79;21165;-40
2020/12/28 07:42:41;;;;;;;9.45;5.70;;;;;;;1.09;72.99;100609.05;1747377;79;21628;-46
2020/12/28 07:45:17;;;;;;;11.10;6.30;;;;;;;1.09;72.85;100616.78;1753107;79;21345;-40
2020/12/28 07:47:58;;;;;;;10.15;5.33;;;;;;;1.08;72.85;100617.59;1762538;79;21614;-40
2020/12/28 07:50:30;;;;;;;11.95;6.53;;;;;;;1.08;72.94;100619.30;1755633;79;21181;-46
2020/12/28 07:53:15;;;;;;;13.50;6.00;;;;;;;1.09;73.13;100621.93;1734386;81;21187;-39
2020/12/28 07:56:01;;;;;;;11.12;5.37;;;;;;;1.13;73.21;100610.07;1762844;79;21248;-45
2020/12/28 07:58:55;;;;;;;8.13;5.17;;;;;;;1.12;73.31;100610.89;1756188;79;21187;-40
2020/12/28 08:01:33;;;;;;;10.38;5.65;;;;;;;1.09;73.51;100612.03;1705195;82;21210;-40
2020/12/28 08:04:14;;;;;;;;;;;;;;;;;;;;;
2020/12/28 08:06:41;;;;;;;13.83;6.92;;;;;;;1.13;73.70;100598.47;1773619;78;28822;-44
2020/12/28 08:09:08;;;;;;;11.25;6.50;;;;;;;1.15;73.70;100605.85;1724817;80;28400;-48
2020/12/28 08:11:36;;;;;;;8.18;5.35;;;;;;;1.27;73.51;100610.23;1731719;80;21151;-39
2020/12/28 08:14:10;;;;;;;10.30;6.08;;;;;;;1.28;73.47;100601.30;1711332;81;21147;-39
2020/12/28 08:16:38;;;;;;;8.53;5.33;;;;;;;1.24;73.59;100599.81;1738558;80;22036;-40
2020/12/28 08:19:06;;;;;;;7.58;5.30;;;;;;;1.19;73.83;100595.74;1730162;80;21189;-46
2020/12/28 08:21:44;;;;;;;7.97;5.10;;;;;;;1.16;74.05;100585.32;1733757;80;21186;-41
2020/12/28 08:24:22;;;;;;;14.47;6.47;;;;;;;1.18;74.20;100574.66;1710618;80;21147;-46
2020/12/28 08:27:00;;;;;;;12.40;6.10;;;;;;;1.20;74.38;100574.30;1739862;81;21171;-47
2020/12/28 08:29:28;;;;;;;11.22;5.55;;;;;;;1.24;74.33;100569.75;1735739;80;21290;-42
2020/12/28 08:31:58;;;;;;;10.78;5.90;;;;;;;1.26;74.30;100560.38;1691709;80;21190;-46
2020/12/28 08:34:30;;;;;;;12.33;5.90;;;;;;;1.24;74.38;100560.73;1703926;82;21140;-47
2020/12/28 08:37:01;;;;;;;11.95;7.10;;;;;;;1.25;74.49;100561.20;1683847;84;21166;-41
2020/12/28 08:39:33;;;;;;;11.65;6.72;;;;;;;1.30;74.38;100562.27;1681891;83;21199;-40
2020/12/28 08:42:04;;;;;;;12.43;6.90;;;;;;;1.31;74.25;100561.45;1639917;84;21133;-40
2020/12/28 08:44:37;;;;;;;14.33;6.55;;;;;;;1.29;74.36;100556.66;1737689;80;21188;-46
2020/12/28 08:47:11;;;;;;;11.25;5.75;;;;;;;1.31;74.61;100550.27;1736416;80;21139;-46
2020/12/28 08:49:44;;;;;;;10.55;6.95;;;;;;;1.33;74.55;100553.39;1736738;81;21222;-42
2020/12/28 08:52:17;;;;;;;8.18;5.87;;;;;;;1.33;74.63;100545.66;1736060;81;21181;-46
2020/12/28 08:54:57;;;;;;;14.33;6.62;;;;;;;1.32;74.68;100540.00;1734890;80;21709;-47
2020/12/28 08:57:27;;;;;;;12.50;6.97;;;;;;;1.31;74.80;100539.53;1741919;80;21171;-46
2020/12/28 08:59:59;;;;;;;13.20;7.08;;;;;;;1.32;74.72;100545.57;1738522;82;21738;-41
2020/12/28 09:02:27;;;;;;;12.60;6.45;;;;;;;1.30;74.86;100538.20;1743158;82;21566;-41
2020/12/28 09:04:57;;;;;;;11.03;6.50;;;;;;;1.28;75.01;100536.85;1734859;81;21488;-46
2020/12/28 09:07:25;;;;;;;12.55;7.62;;;;;;;1.24;75.17;100527.22;1734630;81;21845;-41
2020/12/28 09:09:58;;;;;;;16.90;8.37;;;;;;;1.24;75.38;100531.09;1742773;80;21333;-46
2020/12/28 09:12:26;;;;;;;10.45;7.25;;;;;;;1.26;75.40;100520.42;1700513;82;21780;-41
2020/12/28 09:14:55;;;;;;;13.78;7.80;;;;;;;1.28;75.44;100511.48;1734320;80;21623;-47
2020/12/28 09:17:25;;;;;;;9.15;6.10;;;;;;;1.26;75.52;100509.23;1733818;80;21828;-42
2020/12/28 10:18:34;;;;;;;11.48;7.45;;;;;;;1.39;78.82;100423.81;1783434;77;23183;-40
2020/12/28 10:21:03;;;;;;;17.48;8.85;;;;;;;1.41;78.65;100426.06;1785342;77;21739;-46
2020/12/28 10:23:36;;;;;;;13.43;8.48;;;;;;;1.43;78.56;100419.25;1812384;77;21146;-41
2020/12/28 10:26:08;;;;;;;15.50;8.08;;;;;;;1.42;78.49;100413.64;1785186;77;21688;-46
2020/12/28 10:28:39;;;;;;;13.25;8.45;;;;;;;1.42;78.34;100394.30;1787393;77;21158;-46
2020/12/28 10:31:13;;;;;;;15.23;8.13;;;;;;;1.39;78.34;100398.03;1787193;77;21624;-46
2020/12/28 10:33:45;;;;;;;18.73;10.23;;;;;;;1.36;78.52;100399.22;1813911;77;22026;-39
2020/12/28 10:36:17;;;;;;;12.28;8.15;;;;;;;1.36;78.69;100386.33;1815171;77;21258;-39
2020/12/28 10:38:52;;;;;;;20.05;9.40;;;;;;;1.37;78.64;100394.53;1812869;77;21102;-46
2020/12/28 10:41:34;;;;;;;15.32;9.08;;;;;;;1.37;78.70;100393.23;1810375;77;21150;-40
2020/12/28 10:44:09;;;;;;;16.70;9.55;;;;;;;1.38;78.71;100388.95;1814748;77;21167;-45
2020/12/28 10:46:41;;;;;;;17.25;9.28;;;;;;;1.36;78.79;100382.47;1784997;77;21181;-40
2020/12/28 10:49:08;;;;;;;17.02;8.95;;;;;;;1.36;78.89;100377.72;1809806;77;21134;-45
2020/12/28 10:51:38;;;;;;;18.32;9.55;;;;;;;1.37;79.13;100370.45;1824667;77;21641;-46
2020/12/28 10:54:06;;;;;;;18.55;9.33;;;;;;;1.36;79.41;100368.28;1815670;77;21575;-42
2020/12/28 10:56:35;;;;;;;14.47;9.30;;;;;;;1.37;79.59;100371.33;1820642;77;21919;-45
2020/12/28 10:59:03;;;;;;;23.22;12.25;;;;;;;1.38;79.78;100378.23;1821628;77;21546;-45
2020/12/28 11:01:33;;;;;;;26.12;11.18;;;;;;;1.43;79.94;100380.99;1774546;79;21288;-46
2020/12/28 11:04:01;;;;;;;20.92;10.70;;;;;;;1.48;79.94;100380.77;1762532;80;21573;-40
2020/12/28 11:06:34;;;;;;;17.70;10.82;;;;;;;1.49;80.06;100373.08;1778239;79;21142;-42
2020/12/28 11:09:04;;;;;;;16.97;10.00;;;;;;;1.47;80.11;100373.85;1701207;79;21677;-46
2020/12/28 11:11:34;;;;;;;22.02;12.78;;;;;;;1.45;80.19;100366.45;1758109;80;21197;-41
2020/12/28 11:14:17;;;;;;;23.10;11.40;;;;;;;1.47;80.38;100362.25;1792312;78;24358;-45
2020/12/28 11:16:54;;;;;;;19.55;11.10;;;;;;;1.42;80.45;100365.94;1756520;79;21674;-46
2020/12/28 11:19:33;;;;;;;18.52;10.55;;;;;;;1.39;80.59;100354.62;1726457;80;21318;-39
2020/12/28 11:22:13;;;;;;;23.92;13.00;;;;;;;1.36;80.82;100362.25;1744465;80;21176;-45
2020/12/28 11:25:35;;;;;;;23.75;12.80;;;;;;;1.37;81.03;100354.98;1743451;80;21224;-45
2020/12/28 11:32:36;;;;;;;22.55;11.43;;;;;;;1.41;81.25;100357.73;1748278;80;21753;-38
2020/12/28 11:35:08;;;;;;;23.98;10.82;;;;;;;1.39;81.37;100350.34;1720183;80;21917;-40
2020/12/28 11:37:49;;;;;;;17.20;11.48;;;;;;;1.40;81.45;100340.52;1753793;80;21674;-46
2020/12/28 11:54:40;;;;;;;22.45;12.15;;;;;;;1.70;81.43;100326.58;1808231;76;25595;-39
2020/12/28 11:57:08;;;;;;;24.85;14.28;;;;;;;1.67;81.40;100325.16;1795053;78;21150;-41
2020/12/28 11:59:35;;;;;;;26.42;13.45;;;;;;;1.66;81.31;100327.69;1770780;79;21636;-41
2020/12/28 12:02:07;;;;;;;29.10;13.28;;;;;;;1.63;81.18;100323.31;1762911;79;21602;-46
2020/12/28 12:07:23;;;;;;;25.85;12.37;;;;;;;1.54;81.40;100319.97;1763423;79;21139;-40
2020/12/28 12:09:55;;;;;;;27.15;15.68;;;;;;;1.55;81.31;100326.01;1760886;79;21842;-39
2020/12/28 12:12:27;;;;;;;28.25;15.40;;;;;;;1.53;81.32;100328.95;1723443;79;22077;-44
2020/12/28 12:14:56;;;;;;;29.25;12.95;;;;;;;1.51;81.33;100328.91;1765483;79;21190;-50
